Svyataya Anna — UUCV — position and weather

sailwx.info

Track history (hours):
 
Tides and Currents Weather Stations Pressure Air Temp Water Temp Dewpoint Dewpoint Depression Visibility Wind Speed Wind Dir Waves Ship Positions

Svyataya Anna

Last reported at 2017-Nov-18 03:06 UTC. Time now 2017-Nov-22 16:40 UTC.
Position N 44°24' E 027°53'.

Length 93 m; draft 3.4 m.

Type: Cargo ship. MMSI: 272068800.

Date/timePositionNaut miles runAvg speedWind from/ knotsBaromVisibWave heightAir tempDewpointWater temp
2017-Nov-18 03:06N 44°24' E 027°53'0 0.0
2017-Nov-18 03:00N 44°24' E 027°53'0 0.0
2017-Nov-18 02:30N 44°24' E 027°53'0 0.0
2017-Nov-18 02:00N 44°24' E 027°53'0 0.0
2017-Nov-18 01:28N 44°24' E 027°53'0 0.0
2017-Nov-18 01:00N 44°24' E 027°53'0 0.0
2017-Nov-18 00:30N 44°24' E 027°53'0 0.0
2017-Nov-18 00:00N 44°24' E 027°53'0 0.0
2017-Nov-17 23:30N 44°24' E 027°53'0 0.0
2017-Nov-17 23:00N 44°24' E 027°53'0 0.0
2017-Nov-17 22:30N 44°24' E 027°53'  
2017-Nov-11 11:41N 46°36' E 031°44'5 4.7
2017-Nov-11 10:37N 46°35' E 031°51'1 4.8
2017-Nov-11 10:30N 46°35' E 031°52'2 4.9
2017-Nov-11 10:00N 46°34' E 031°55'2 4.9
2017-Nov-11 09:30N 46°33' E 031°59'2 5.1
2017-Nov-11 09:00N 46°32' E 032°02'136 2.9
2017-Nov-09 09:55N 47°34' E 035°00'2 5.1
2017-Nov-09 09:30N 47°36' E 035°02'3 5.1
2017-Nov-09 09:00N 47°38' E 035°04'3 5.6
2017-Nov-09 08:30N 47°40' E 035°07'3 5.8
2017-Nov-09 08:00N 47°43' E 035°08'3 5.2
2017-Nov-09 07:30N 47°45' E 035°10'3 5.2
2017-Nov-09 07:00N 47°48' E 035°10'3 5.0
2017-Nov-09 06:30N 47°50' E 035°07'2 4.9
2017-Nov-09 06:00N 47°51' E 035°05'0 1.0
2017-Nov-09 05:30N 47°52' E 035°05'0 0.0
2017-Nov-09 05:00N 47°52' E 035°05'1 1.1
2017-Nov-09 04:30N 47°52' E 035°06'0 0.6
2017-Nov-09 04:00N 47°52' E 035°06'0 0.0
2017-Nov-08 15:26N 47°52' E 035°06'0 0.0
2017-Nov-08 15:01N 47°52' E 035°06'0 0.3
2017-Nov-08 14:31N 47°52' E 035°06'  
Track history (hours):
 
Tides and Currents Weather Stations Pressure Air Temp Water Temp Dewpoint Dewpoint Depression Visibility Wind Speed Wind Dir Waves Ship Positions

Svyataya Anna

Last reported at 2017-Nov-18 03:06 UTC. Time now 2017-Nov-22 16:40 UTC.
Position N 44°24' E 027°53'.

Length 93 m; draft 3.4 m.

Type: Cargo ship. MMSI: 272068800.

Date/timePositionNaut miles runAvg speedWind from/ knotsBaromVisibWave heightAir tempDewpointWater temp
2017-Nov-18 03:06N 44°24' E 027°53'0 0.0
2017-Nov-18 03:00N 44°24' E 027°53'0 0.0
2017-Nov-18 02:30N 44°24' E 027°53'0 0.0
2017-Nov-18 02:00N 44°24' E 027°53'0 0.0
2017-Nov-18 01:28N 44°24' E 027°53'0 0.0
2017-Nov-18 01:00N 44°24' E 027°53'0 0.0
2017-Nov-18 00:30N 44°24' E 027°53'0 0.0
2017-Nov-18 00:00N 44°24' E 027°53'0 0.0
2017-Nov-17 23:30N 44°24' E 027°53'0 0.0
2017-Nov-17 23:00N 44°24' E 027°53'0 0.0
2017-Nov-17 22:30N 44°24' E 027°53'  
2017-Nov-11 11:41N 46°36' E 031°44'5 4.7
2017-Nov-11 10:37N 46°35' E 031°51'1 4.8
2017-Nov-11 10:30N 46°35' E 031°52'2 4.9
2017-Nov-11 10:00N 46°34' E 031°55'2 4.9
2017-Nov-11 09:30N 46°33' E 031°59'2 5.1
2017-Nov-11 09:00N 46°32' E 032°02'136 2.9
2017-Nov-09 09:55N 47°34' E 035°00'2 5.1
2017-Nov-09 09:30N 47°36' E 035°02'3 5.1
2017-Nov-09 09:00N 47°38' E 035°04'3 5.6
2017-Nov-09 08:30N 47°40' E 035°07'3 5.8
2017-Nov-09 08:00N 47°43' E 035°08'3 5.2
2017-Nov-09 07:30N 47°45' E 035°10'3 5.2
2017-Nov-09 07:00N 47°48' E 035°10'3 5.0
2017-Nov-09 06:30N 47°50' E 035°07'2 4.9
2017-Nov-09 06:00N 47°51' E 035°05'0 1.0
2017-Nov-09 05:30N 47°52' E 035°05'0 0.0
2017-Nov-09 05:00N 47°52' E 035°05'1 1.1
2017-Nov-09 04:30N 47°52' E 035°06'0 0.6
2017-Nov-09 04:00N 47°52' E 035°06'0 0.0
2017-Nov-08 15:26N 47°52' E 035°06'0 0.0
2017-Nov-08 15:01N 47°52' E 035°06'0 0.3
2017-Nov-08 14:31N 47°52' E 035°06'  

Dump ship's entire track history